Estación Meteorológica Peña el Pijo (Robertgarden) [ 10/16/18 04:30:02 CEST ]

Fecha Hora Presion(HPa) Temp (°C) Humedad % Rocio (°C) Viento ( m/s) Direccion Lluvia 1Hora(mm) Lluvia 24H(mm) LLuvia Total(mm)
2018-Apr-20 01:01:50 1012.500 8.2 74 3.8         203.05
2018-Apr-20 02:01:51 1012.000 9.2 77 5.3         203.05
2018-Apr-20 03:01:45 1011.700 9.6 77 5.7         203.05
2018-Apr-20 04:01:46 1011.300 9.7 76 5.6         203.05
2018-Apr-20 05:05:10 1011.000 9.6 76 5.5 0.8 ENE     203.05
2018-Apr-20 06:02:04 1010.500 9.6 77 5.7 0.5 NNW     203.05
2018-Apr-20 07:01:39 1010.300 9.7 76 5.6 2.4 NE     203.05
2018-Apr-20 08:01:50 1010.400 9.5 76 5.4         203.05
2018-Apr-20 09:01:45 1010.700 9.9 75 5.6         203.05
2018-Apr-20 10:02:36 1010.800 10.9 70 5.7 1.5 NNE     203.05
2018-Apr-20 11:02:05 1010.900 10.8 70 5.6 0.1 NE     203.05
2018-Apr-20 12:01:19 1011.300 10.9 70 5.7         203.05
2018-Apr-20 13:01:31 1011.200 11.8 67 5.8 1.3 ENE     203.05
2018-Apr-20 14:01:40 1010.700 13.4 63 6.5         203.05
2018-Apr-20 15:01:55 1010.500 15.6 57 7.1 1.7 ENE     203.05
2018-Apr-20 16:01:56 1010.000 16.6 52 6.7         203.05
2018-Apr-20 17:01:41 1009.600 17.4 50 6.9         203.05
2018-Apr-20 18:01:44 1009.500 16.8 48 5.7 3.1 SSW     203.05
2018-Apr-20 19:01:52 1009.600 16.3 51 6.1         203.05
2018-Apr-20 20:02:04 1009.600 13.8 59 5.9         203.05
2018-Apr-20 21:01:48 1010.100 12.1 64 5.5         203.05
2018-Apr-20 22:01:41 1010.800 10.8 71 5.8         203.05
2018-Apr-20 23:01:43 1011.200 10.0 74 5.6         203.05

Temperatura Máxima:17°    Temperatura Mínima:
Presión Máxima:1012.500 Hpa    Presión Mínima:1009.500 Hpa


Volver